Time;durP1;ratioP1;P1;durP2;ratioP2;P2;SDS_P1;SDS_P2;PMS_P1;PMS_P2;Temp;Humidity;BMP_temperature;BMP_pressure;BME280_temperature;BME280_humidity;BME280_pressure;Samples;Min_cycle;Max_cycle;Signal;HPM_P1;HPM_P2
2023/04/12 00:01:33;;;;;;;22.40;21.00;;;9.00;99.90;;;;;;5102883;28;20940;-69
2023/04/12 00:04:03;;;;;;;22.27;20.87;;;9.00;99.90;;;;;;5106014;28;20894;-68
2023/04/12 00:06:32;;;;;;;21.07;19.77;;;9.00;99.90;;;;;;5102107;28;20465;-69
2023/04/12 00:08:59;;;;;;;20.97;19.67;;;9.00;99.90;;;;;;5108838;28;20882;-69
2023/04/12 00:11:26;;;;;;;21.50;20.20;;;9.00;99.90;;;;;;5097713;27;20647;-68
2023/04/12 00:13:52;;;;;;;20.30;19.10;;;9.00;99.90;;;;;;5101736;28;20458;-69
2023/04/12 00:16:19;;;;;;;20.93;19.73;;;9.10;99.90;;;;;;5104023;28;20464;-69
2023/04/12 00:18:47;;;;;;;20.63;19.43;;;9.20;99.90;;;;;;5090248;28;20511;-69
2023/04/12 00:21:18;;;;;;;23.43;20.17;;;9.10;99.90;;;;;;5101566;28;20464;-69
2023/04/12 00:23:45;;;;;;;19.50;18.40;;;9.00;99.90;;;;;;5106737;28;20817;-69
2023/04/12 00:26:13;;;;;;;21.10;19.80;;;9.00;99.90;;;;;;5100210;28;20535;-68
2023/04/12 00:28:40;;;;;;;21.17;19.87;;;9.00;99.90;;;;;;5100598;28;20545;-68
2023/04/12 00:31:07;;;;;;;21.10;19.60;;;8.90;99.90;;;;;;5101577;28;20453;-69
2023/04/12 00:33:35;;;;;;;20.90;19.60;;;8.90;99.90;;;;;;5099111;28;20469;-68
2023/04/12 00:36:04;;;;;;;20.30;19.10;;;8.80;99.90;;;;;;5096938;28;20561;-69
2023/04/12 00:38:30;;;;;;;20.40;19.20;;;8.70;99.90;;;;;;5098736;28;20870;-69
2023/04/12 00:40:57;;;;;;;19.83;18.73;;;8.70;99.90;;;;;;5101941;28;20492;-70
2023/04/12 00:43:26;;;;;;;20.10;19.00;;;8.70;99.90;;;;;;5090208;28;20465;-70
2023/04/12 00:45:57;;;;;;;20.60;19.40;;;8.60;99.90;;;;;;5105817;28;20458;-69
2023/04/12 00:48:26;;;;;;;20.33;19.13;;;8.60;99.90;;;;;;5084966;28;20469;-69
2023/04/12 00:50:54;;;;;;;20.23;19.13;;;8.60;99.90;;;;;;5092366;28;20473;-69
2023/04/12 00:53:22;;;;;;;20.37;19.17;;;8.50;99.90;;;;;;5097481;28;20858;-69
2023/04/12 00:55:51;;;;;;;20.30;19.20;;;8.50;99.90;;;;;;5103260;28;20553;-68
2023/04/12 00:58:18;;;;;;;19.60;18.50;;;8.50;99.90;;;;;;5102386;28;20601;-69
2023/04/12 01:00:49;;;;;;;19.90;18.80;;;8.50;99.90;;;;;;5096299;27;20483;-68
2023/04/12 01:03:21;;;;;;;18.87;17.87;;;8.50;99.90;;;;;;5101720;28;20544;-69
2023/04/12 01:06:12;;;;;;;19.30;18.20;;;8.50;99.90;;;;;;5108926;28;20459;-68
2023/04/12 01:08:51;;;;;;;18.80;17.80;;;8.50;99.90;;;;;;5104316;28;20476;-68
2023/04/12 01:11:23;;;;;;;18.73;17.73;;;8.40;99.90;;;;;;5091001;27;20506;-69
2023/04/12 01:13:58;;;;;;;18.87;17.87;;;8.40;99.90;;;;;;5101531;28;20458;-69
2023/04/12 01:16:34;;;;;;;18.70;17.70;;;8.30;99.90;;;;;;5099978;28;20463;-68
2023/04/12 01:19:05;;;;;;;18.93;17.93;;;8.30;99.90;;;;;;5095199;28;20808;-69
2023/04/12 01:21:41;;;;;;;18.00;17.10;;;8.30;99.90;;;;;;5103095;28;20462;-69
2023/04/12 01:24:27;;;;;;;18.33;17.33;;;8.30;99.90;;;;;;5101657;28;21018;-70
2023/04/12 01:26:59;;;;;;;19.10;18.10;;;8.30;99.90;;;;;;5108663;28;20457;-69
2023/04/12 01:29:30;;;;;;;18.50;17.60;;;8.30;99.90;;;;;;5096339;28;21028;-69
2023/04/12 01:32:00;;;;;;;18.20;17.30;;;8.30;99.90;;;;;;5092804;28;20465;-69
2023/04/12 01:34:29;;;;;;;18.87;17.97;;;8.30;99.90;;;;;;5102740;28;20461;-69
2023/04/12 01:36:58;;;;;;;17.90;17.00;;;8.30;99.90;;;;;;5108660;28;20461;-69
2023/04/12 01:39:26;;;;;;;18.40;17.50;;;8.20;99.90;;;;;;5097942;28;20862;-69
2023/04/12 01:41:53;;;;;;;18.20;17.30;;;8.20;99.90;;;;;;5102454;28;20527;-69
2023/04/12 01:44:20;;;;;;;20.37;17.90;;;8.20;99.90;;;;;;5093675;28;20462;-68
2023/04/12 01:46:50;;;;;;;18.37;17.47;;;8.20;99.90;;;;;;5106984;28;20489;-71
2023/04/12 01:49:18;;;;;;;17.73;16.87;;;8.20;99.90;;;;;;5099335;28;20980;-70
2023/04/12 01:51:52;;;;;;;18.53;17.63;;;8.20;99.90;;;;;;5094198;28;20453;-69
2023/04/12 01:54:22;;;;;;;18.03;17.13;;;8.20;99.90;;;;;;5095844;28;20546;-69
2023/04/12 01:56:57;;;;;;;17.80;16.90;;;8.20;99.90;;;;;;5099948;28;20526;-67
2023/04/12 01:59:28;;;;;;;18.10;17.20;;;8.20;99.90;;;;;;5101193;28;20553;-68
2023/04/12 02:01:57;;;;;;;17.77;16.87;;;8.20;99.90;;;;;;5100607;28;20866;-68
2023/04/12 02:04:26;;;;;;;17.80;16.90;;;8.10;99.90;;;;;;5104978;28;20471;-68
2023/04/12 02:06:54;;;;;;;19.73;18.10;;;8.10;99.90;;;;;;5098399;28;20457;-68
2023/04/12 02:09:22;;;;;;;17.90;17.00;;;8.10;99.90;;;;;;5104232;28;20457;-68
2023/04/12 02:11:49;;;;;;;17.33;16.53;;;8.10;99.90;;;;;;5097684;28;20489;-68
2023/04/12 02:14:16;;;;;;;18.43;17.53;;;8.10;99.90;;;;;;5101764;28;20936;-68
2023/04/12 02:16:44;;;;;;;17.63;16.73;;;8.10;99.90;;;;;;5093105;28;20963;-68
2023/04/12 02:19:13;;;;;;;17.10;16.30;;;8.10;99.90;;;;;;5098534;28;20495;-69
2023/04/12 02:21:41;;;;;;;18.23;17.33;;;8.10;99.90;;;;;;5086649;28;20461;-68
2023/04/12 02:24:08;;;;;;;17.47;16.67;;;8.10;99.90;;;;;;5101848;28;20885;-69
2023/04/12 02:26:37;;;;;;;17.83;16.93;;;8.10;99.90;;;;;;5104120;28;20554;-68
2023/04/12 02:29:06;;;;;;;17.40;16.60;;;8.10;99.90;;;;;;5093017;28;20465;-68
2023/04/12 02:31:33;;;;;;;18.17;17.27;;;8.10;99.90;;;;;;5102026;28;20454;-69
2023/04/12 02:34:00;;;;;;;17.63;16.83;;;8.10;99.90;;;;;;5093756;28;20498;-69
2023/04/12 02:36:29;;;;;;;16.90;16.10;;;8.00;99.90;;;;;;5104137;28;20541;-69
2023/04/12 02:38:57;;;;;;;16.93;16.13;;;8.00;99.90;;;;;;5094384;28;20510;-70
2023/04/12 02:41:24;;;;;;;16.43;15.73;;;7.90;99.90;;;;;;5097483;28;20591;-70
2023/04/12 02:43:51;;;;;;;16.90;16.10;;;7.90;99.90;;;;;;5098856;28;20546;-69
2023/04/12 02:46:22;;;;;;;16.50;15.80;;;7.90;99.90;;;;;;5104324;28;20467;-69
2023/04/12 02:48:49;;;;;;;16.17;15.37;;;7.90;99.90;;;;;;5088715;28;20530;-69
2023/04/12 02:51:16;;;;;;;16.40;15.43;;;7.90;99.90;;;;;;5103628;28;20461;-69
2023/04/12 02:53:45;;;;;;;15.87;15.17;;;7.90;99.90;;;;;;5100492;28;20480;-70
2023/04/12 02:56:12;;;;;;;15.70;15.00;;;7.80;99.90;;;;;;5102909;28;20955;-68
2023/04/12 02:58:40;;;;;;;15.70;15.00;;;7.80;99.90;;;;;;5097214;28;20576;-69
2023/04/12 03:01:07;;;;;;;15.13;14.43;;;7.90;99.90;;;;;;5101208;28;20940;-68
2023/04/12 03:03:34;;;;;;;15.63;14.93;;;7.90;99.90;;;;;;5099813;28;20551;-69
2023/04/12 03:06:02;;;;;;;15.67;14.97;;;7.80;99.90;;;;;;5096457;28;20530;-69
2023/04/12 03:08:29;;;;;;;14.53;13.93;;;7.80;99.90;;;;;;5096093;28;20561;-69
2023/04/12 03:10:58;;;;;;;14.53;13.93;;;7.80;99.90;;;;;;5094470;28;20463;-69
2023/04/12 03:13:24;;;;;;;14.20;13.60;;;7.80;99.90;;;;;;5097102;28;20481;-69
2023/04/12 03:15:56;;;;;;;14.77;14.17;;;7.80;99.90;;;;;;5106619;28;20457;-68
2023/04/12 03:18:24;;;;;;;14.70;14.10;;;7.80;99.90;;;;;;5089001;28;20580;-68
2023/04/12 03:20:52;;;;;;;14.27;13.67;;;7.80;99.90;;;;;;5095836;28;20449;-69
2023/04/12 03:23:19;;;;;;;14.73;14.10;;;7.80;99.90;;;;;;5103000;28;20468;-68
2023/04/12 03:25:46;;;;;;;15.30;14.40;;;7.80;99.90;;;;;;5103129;28;20461;-68
2023/04/12 03:28:14;;;;;;;34.67;14.03;;;7.80;99.90;;;;;;5101315;28;20964;-68
2023/04/12 03:30:41;;;;;;;14.50;13.90;;;7.80;99.90;;;;;;5087355;28;20857;-69
2023/04/12 03:33:08;;;;;;;14.50;13.90;;;7.80;99.90;;;;;;5097548;28;20484;-68
2023/04/12 03:35:35;;;;;;;14.07;13.47;;;7.80;99.90;;;;;;5101392;28;20758;-67
2023/04/12 03:38:02;;;;;;;13.67;13.07;;;7.90;99.90;;;;;;5098182;28;20486;-67
2023/04/12 03:40:29;;;;;;;13.80;13.20;;;7.90;99.90;;;;;;5101054;28;20493;-68
2023/04/12 03:42:56;;;;;;;13.63;13.07;;;7.90;99.90;;;;;;5090855;28;20469;-69
2023/04/12 03:45:24;;;;;;;14.67;14.07;;;7.90;99.90;;;;;;5100835;28;20465;-68
2023/04/12 03:47:51;;;;;;;14.47;13.80;;;7.90;99.90;;;;;;5087310;28;20466;-67
2023/04/12 03:50:19;;;;;;;14.27;13.67;;;7.90;99.90;;;;;;5101102;28;20473;-68
2023/04/12 03:52:46;;;;;;;14.03;13.43;;;7.90;99.90;;;;;;5096123;28;20799;-68
2023/04/12 03:55:17;;;;;;;14.30;13.70;;;7.90;99.90;;;;;;5094455;28;20545;-68
2023/04/12 03:57:45;;;;;;;14.63;14.03;;;7.90;99.90;;;;;;5097951;28;20490;-68
2023/04/12 04:00:13;;;;;;;14.57;13.97;;;7.90;99.90;;;;;;5101600;28;20468;-67
2023/04/12 04:02:41;;;;;;;17.40;16.07;;;7.90;99.90;;;;;;5099484;28;20552;-67
2023/04/12 04:05:08;;;;;;;15.67;14.97;;;7.90;99.90;;;;;;5093415;28;21041;-68
2023/04/12 04:07:36;;;;;;;15.50;14.80;;;7.90;99.90;;;;;;5111100;28;20479;-67
2023/04/12 04:10:04;;;;;;;16.47;15.70;;;7.90;99.90;;;;;;5101903;28;20898;-67
2023/04/12 04:12:31;;;;;;;15.60;14.90;;;7.90;99.90;;;;;;5097212;28;20522;-69
2023/04/12 04:14:58;;;;;;;15.23;14.53;;;7.90;99.90;;;;;;5096836;27;20465;-68
2023/04/12 04:17:25;;;;;;;16.03;15.30;;;7.90;99.90;;;;;;5095982;28;20515;-69
2023/04/12 04:19:53;;;;;;;14.90;14.30;;;8.00;99.90;;;;;;5106111;28;20500;-69
2023/04/12 04:22:21;;;;;;;14.63;13.97;;;7.90;99.90;;;;;;5102840;28;20461;-69
2023/04/12 04:24:49;;;;;;;15.20;14.50;;;7.90;99.90;;;;;;5097975;28;20546;-69
2023/04/12 04:27:15;;;;;;;14.60;14.00;;;7.90;99.90;;;;;;5103499;28;20498;-70
2023/04/12 04:29:44;;;;;;;14.57;13.97;;;7.90;99.90;;;;;;5096680;28;20877;-69
2023/04/12 04:32:11;;;;;;;14.60;14.00;;;7.90;99.90;;;;;;5096914;28;20450;-69
2023/04/12 04:34:39;;;;;;;14.40;13.80;;;7.90;99.90;;;;;;5103466;28;20465;-69
2023/04/12 04:37:07;;;;;;;14.90;14.20;;;7.80;99.90;;;;;;5103809;28;20460;-69
2023/04/12 04:39:33;;;;;;;14.80;14.20;;;7.80;99.90;;;;;;5098225;28;20553;-70
2023/04/12 04:42:00;;;;;;;14.00;13.40;;;7.80;99.90;;;;;;5097030;27;20489;-69
2023/04/12 04:44:27;;;;;;;13.93;13.33;;;7.80;99.90;;;;;;5102073;28;20446;-70
2023/04/12 04:46:55;;;;;;;14.50;13.80;;;7.80;99.90;;;;;;5108997;28;20492;-69
2023/04/12 04:49:22;;;;;;;14.03;13.43;;;7.90;99.90;;;;;;5099319;28;20993;-69
2023/04/12 04:51:49;;;;;;;13.80;13.20;;;7.80;99.90;;;;;;5096554;28;20470;-69
2023/04/12 04:54:17;;;;;;;13.50;13.00;;;7.80;99.90;;;;;;5110056;28;20563;-69
2023/04/12 04:56:46;;;;;;;14.00;13.40;;;7.80;99.90;;;;;;5097926;28;20551;-69
2023/04/12 04:59:13;;;;;;;12.50;12.00;;;7.80;99.90;;;;;;5095412;28;20537;-70
2023/04/12 05:01:40;;;;;;;13.17;12.67;;;7.80;99.90;;;;;;5096862;28;20465;-69
2023/04/12 05:04:07;;;;;;;13.13;12.63;;;7.80;99.90;;;;;;5101362;28;20464;-70
2023/04/12 05:06:34;;;;;;;12.70;12.20;;;7.80;99.90;;;;;;5101923;28;20453;-69
2023/04/12 05:09:01;;;;;;;12.27;11.77;;;7.80;99.90;;;;;;5095989;28;20457;-69
2023/04/12 05:11:29;;;;;;;12.80;12.30;;;7.80;99.90;;;;;;5090375;28;20472;-69
2023/04/12 05:13:56;;;;;;;11.50;11.10;;;7.70;99.90;;;;;;5095081;28;20453;-69
2023/04/12 05:16:23;;;;;;;11.00;10.60;;;7.70;99.90;;;;;;5110246;28;20513;-69
2023/04/12 05:18:50;;;;;;;11.53;11.03;;;7.70;99.90;;;;;;5096059;28;20574;-69
2023/04/12 05:21:16;;;;;;;10.70;10.30;;;7.80;99.90;;;;;;5099785;28;20474;-70
2023/04/12 05:23:46;;;;;;;11.23;10.83;;;7.80;99.90;;;;;;5102937;28;20458;-69
2023/04/12 05:26:12;;;;;;;11.20;10.80;;;7.80;99.90;;;;;;5101292;28;20832;-69
2023/04/12 05:28:41;;;;;;;10.53;10.13;;;7.80;99.90;;;;;;5096591;28;20814;-70
2023/04/12 05:31:08;;;;;;;10.90;10.50;;;7.80;99.90;;;;;;5096695;28;20576;-70
2023/04/12 05:33:36;;;;;;;10.60;10.20;;;7.80;99.90;;;;;;5095220;28;20468;-70
2023/04/12 05:36:03;;;;;;;12.40;11.80;;;7.80;99.90;;;;;;5102717;28;20496;-69
2023/04/12 05:38:30;;;;;;;10.50;10.10;;;7.90;99.90;;;;;;5095351;28;20688;-70
2023/04/12 05:40:57;;;;;;;10.33;9.93;;;7.90;99.90;;;;;;5096972;28;20565;-70
2023/04/12 05:43:24;;;;;;;9.70;9.40;;;7.90;99.90;;;;;;5106064;28;20453;-71
2023/04/12 05:45:52;;;;;;;9.70;9.40;;;7.90;99.90;;;;;;5104661;28;20477;-69
2023/04/12 05:48:20;;;;;;;10.37;9.97;;;7.90;99.90;;;;;;5094980;28;20457;-70
2023/04/12 05:50:51;;;;;;;9.80;9.50;;;7.90;99.90;;;;;;5092027;28;20457;-70
2023/04/12 05:53:18;;;;;;;9.73;9.43;;;7.90;99.90;;;;;;5089076;28;21005;-70
2023/04/12 05:55:45;;;;;;;9.30;8.93;;;7.90;99.90;;;;;;5093041;28;20457;-70
2023/04/12 05:58:12;;;;;;;8.80;8.50;;;7.90;99.90;;;;;;5100924;28;20476;-71
2023/04/12 06:00:40;;;;;;;10.03;9.53;;;7.90;99.90;;;;;;5104722;28;20461;-70
2023/04/12 06:03:10;;;;;;;8.40;8.10;;;7.90;99.90;;;;;;5102229;28;20574;-71
2023/04/12 06:05:37;;;;;;;9.20;8.90;;;7.90;99.90;;;;;;5097292;28;20872;-70
2023/04/12 06:08:05;;;;;;;8.90;8.50;;;8.00;99.90;;;;;;5101642;28;20453;-70
2023/04/12 06:10:32;;;;;;;9.30;9.00;;;8.00;99.90;;;;;;5097008;28;20480;-71
2023/04/12 06:12:59;;;;;;;8.20;7.90;;;8.00;99.90;;;;;;5095789;28;20489;-70
2023/04/12 06:15:26;;;;;;;8.63;8.33;;;8.10;99.90;;;;;;5105143;28;20456;-70
2023/04/12 06:17:53;;;;;;;8.77;8.47;;;8.10;99.90;;;;;;5093931;28;20462;-70
2023/04/12 06:20:21;;;;;;;8.53;8.23;;;8.10;99.90;;;;;;5103773;28;20489;-70
2023/04/12 06:22:48;;;;;;;9.00;8.70;;;8.20;99.90;;;;;;5098445;28;20472;-70
2023/04/12 06:25:15;;;;;;;9.10;8.80;;;8.30;99.90;;;;;;5099009;28;20462;-70
2023/04/12 06:27:42;;;;;;;9.07;8.67;;;8.30;99.90;;;;;;5088496;28;20890;-70
2023/04/12 06:30:09;;;;;;;8.53;8.23;;;8.30;99.90;;;;;;5088855;28;20869;-70
2023/04/12 06:32:37;;;;;;;8.83;8.53;;;8.30;99.90;;;;;;5096218;28;20458;-70
2023/04/12 06:35:05;;;;;;;9.37;9.07;;;8.30;99.90;;;;;;5098265;28;20580;-70
2023/04/12 06:37:33;;;;;;;9.10;8.80;;;8.30;99.90;;;;;;5098675;28;21045;-70
2023/04/12 06:40:00;;;;;;;9.53;9.23;;;8.40;99.90;;;;;;5098702;28;20496;-69
2023/04/12 06:42:28;;;;;;;8.90;8.60;;;8.40;99.90;;;;;;5096010;28;20891;-70
2023/04/12 06:44:54;;;;;;;11.30;10.80;;;8.40;99.90;;;;;;5099671;28;20461;-70
2023/04/12 06:47:22;;;;;;;8.70;8.40;;;8.50;99.90;;;;;;5091549;28;20832;-70
2023/04/12 06:49:50;;;;;;;9.37;9.07;;;8.50;99.90;;;;;;5096692;28;20975;-70
2023/04/12 06:52:17;;;;;;;21.63;9.60;;;8.50;99.90;;;;;;5097215;28;20468;-70
2023/04/12 06:54:46;;;;;;;8.47;8.17;;;8.60;99.90;;;;;;5084092;28;20481;-70
2023/04/12 06:57:13;;;;;;;9.33;9.03;;;8.60;99.90;;;;;;5084325;28;20461;-71
2023/04/12 06:59:40;;;;;;;8.47;8.17;;;8.60;99.90;;;;;;5071583;28;20494;-70
2023/04/12 07:02:07;;;;;;;8.23;7.93;;;8.70;99.90;;;;;;5080495;28;20454;-70
2023/04/12 07:04:34;;;;;;;8.30;8.00;;;8.70;99.90;;;;;;5077861;28;20892;-70
2023/04/12 07:07:01;;;;;;;9.07;8.77;;;8.80;99.90;;;;;;5077983;28;20873;-70
2023/04/12 07:09:31;;;;;;;8.70;8.40;;;8.80;99.90;;;;;;5074881;28;20811;-70
2023/04/12 07:12:01;;;;;;;9.87;9.47;;;8.90;99.90;;;;;;5073225;28;20556;-70
2023/04/12 07:14:28;;;;;;;8.80;8.50;;;8.90;99.90;;;;;;5080926;28;20462;-70
2023/04/12 07:16:55;;;;;;;8.77;8.47;;;8.90;99.90;;;;;;5076526;28;20465;-70
2023/04/12 07:19:21;;;;;;;8.90;8.60;;;8.90;99.90;;;;;;5085917;28;20564;-70
2023/04/12 07:21:48;;;;;;;9.10;8.80;;;9.00;99.90;;;;;;5078824;28;20469;-70
2023/04/12 07:24:15;;;;;;;9.63;9.23;;;9.00;99.90;;;;;;5076931;28;20489;-69
2023/04/12 07:26:42;;;;;;;9.87;9.57;;;9.10;99.90;;;;;;5076306;28;20462;-69
2023/04/12 07:29:11;;;;;;;10.03;9.63;;;9.10;99.90;;;;;;5078822;28;20463;-70
2023/04/12 07:31:38;;;;;;;10.07;9.67;;;9.10;99.90;;;;;;5076402;28;20478;-70
2023/04/12 07:34:05;;;;;;;10.00;9.67;;;9.10;99.90;;;;;;5080067;28;20467;-70
2023/04/12 07:36:33;;;;;;;9.50;9.20;;;9.10;99.90;;;;;;5072185;28;20464;-70
2023/04/12 07:38:59;;;;;;;10.17;9.77;;;9.10;99.90;;;;;;5077592;28;20527;-70
2023/04/12 07:41:27;;;;;;;9.50;9.20;;;9.20;99.90;;;;;;5080097;28;20483;-71
2023/04/12 07:43:55;;;;;;;9.43;9.10;;;9.20;99.90;;;;;;5082685;28;20874;-71
2023/04/12 07:46:23;;;;;;;9.83;9.47;;;9.30;99.90;;;;;;5077368;28;20462;-70
2023/04/12 07:48:51;;;;;;;10.50;10.10;;;9.30;99.90;;;;;;5077877;28;20566;-70
2023/04/12 07:51:18;;;;;;;9.70;9.40;;;9.40;99.90;;;;;;5075464;28;20511;-70
2023/04/12 07:53:47;;;;;;;9.80;9.50;;;9.40;99.90;;;;;;5082340;28;20492;-70
2023/04/12 07:56:15;;;;;;;10.13;9.73;;;9.40;99.90;;;;;;5103697;28;20446;-71
2023/04/12 07:58:41;;;;;;;9.50;9.20;;;9.50;99.90;;;;;;5100174;28;20446;-71
2023/04/12 08:01:08;;;;;;;9.10;8.80;;;9.60;99.90;;;;;;5104631;28;20460;-70
2023/04/12 08:03:37;;;;;;;10.67;10.23;;;9.60;99.90;;;;;;5105158;28;20456;-71
2023/04/12 08:06:04;;;;;;;10.10;9.70;;;9.70;99.90;;;;;;5096732;28;20530;-71
2023/04/12 08:08:31;;;;;;;10.27;9.87;;;9.70;99.90;;;;;;5105163;28;20457;-71
2023/04/12 08:10:58;;;;;;;9.60;9.30;;;9.80;99.90;;;;;;5104833;28;20458;-70
2023/04/12 08:13:25;;;;;;;10.20;9.80;;;9.90;99.90;;;;;;5104775;28;20468;-70
2023/04/12 08:15:52;;;;;;;10.30;9.90;;;10.00;99.90;;;;;;5095308;28;20565;-70
2023/04/12 08:18:19;;;;;;;11.20;10.80;;;10.00;99.90;;;;;;5090998;28;20990;-70
2023/04/12 08:20:48;;;;;;;11.30;10.90;;;10.10;99.90;;;;;;5103638;28;20493;-72
2023/04/12 08:23:14;;;;;;;11.57;11.17;;;10.20;99.90;;;;;;5103931;28;21092;-69
2023/04/12 08:25:42;;;;;;;11.10;10.70;;;10.30;99.90;;;;;;5098869;28;20465;-71
2023/04/12 08:28:08;;;;;;;12.03;11.53;;;10.30;99.90;;;;;;5109581;28;20931;-70
2023/04/12 08:30:36;;;;;;;12.00;11.57;;;10.20;99.90;;;;;;5104003;28;20460;-71
2023/04/12 08:33:03;;;;;;;11.37;10.97;;;10.20;99.90;;;;;;5095099;28;20453;-70
2023/04/12 08:35:30;;;;;;;12.50;11.93;;;10.30;99.90;;;;;;5095872;28;20461;-69
2023/04/12 08:38:06;;;;;;;16.60;12.00;;;10.20;99.90;;;;;;5103658;27;20461;-69
2023/04/12 08:40:33;;;;;;;11.20;10.80;;;10.20;99.90;;;;;;5103703;28;20584;-71
2023/04/12 08:43:02;;;;;;;10.60;10.20;;;10.30;99.90;;;;;;5099244;28;20453;-71
2023/04/12 08:45:31;;;;;;;10.60;10.20;;;10.40;99.90;;;;;;5097649;28;20518;-71
2023/04/12 08:48:00;;;;;;;10.07;9.67;;;10.50;99.90;;;;;;5099020;28;20446;-71
2023/04/12 08:50:27;;;;;;;9.67;9.37;;;10.30;99.90;;;;;;5106125;28;20456;-71
2023/04/12 08:52:55;;;;;;;9.60;9.30;;;10.20;99.90;;;;;;5096882;28;20863;-71
2023/04/12 08:55:24;;;;;;;8.97;8.67;;;10.30;99.90;;;;;;5074303;28;20490;-70
2023/04/12 08:57:54;;;;;;;8.83;8.53;;;10.40;99.90;;;;;;5076984;28;20482;-70
2023/04/12 09:00:21;;;;;;;8.47;8.17;;;10.60;99.90;;;;;;5084828;28;20477;-70
2023/04/12 09:02:48;;;;;;;8.60;8.30;;;10.80;99.90;;;;;;5077686;28;20466;-70
2023/04/12 09:05:15;;;;;;;8.37;8.00;;;10.90;99.90;;;;;;5081644;28;20533;-71
2023/04/12 09:07:42;;;;;;;8.20;7.90;;;11.20;99.90;;;;;;5070923;28;20455;-70
2023/04/12 09:10:09;;;;;;;8.50;8.20;;;11.20;99.90;;;;;;5069077;28;20462;-70
2023/04/12 09:12:45;;;;;;;7.70;7.40;;;11.10;99.90;;;;;;5080391;28;20516;-71
2023/04/12 09:15:14;;;;;;;8.00;7.70;;;11.20;99.90;;;;;;5084787;28;20590;-69
2023/04/12 09:17:41;;;;;;;7.50;7.30;;;11.30;99.90;;;;;;5090006;28;20457;-70
2023/04/12 09:20:24;;;;;;;7.80;7.50;;;11.10;99.90;;;;;;5075330;28;20510;-70
2023/04/12 09:22:54;;;;;;;7.30;7.10;;;11.10;99.90;;;;;;5073929;28;20969;-70
2023/04/12 09:25:36;;;;;;;6.87;6.67;;;11.20;99.90;;;;;;5086207;28;20461;-70
2023/04/12 09:28:18;;;;;;;7.20;7.00;;;11.40;99.90;;;;;;5089904;28;20800;-71
2023/04/12 09:30:50;;;;;;;7.20;7.00;;;11.00;99.90;;;;;;5087863;28;20477;-69
2023/04/12 09:33:18;;;;;;;6.17;5.97;;;11.00;99.90;;;;;;5071925;28;20465;-69
2023/04/12 09:35:45;;;;;;;7.33;7.03;;;11.10;99.90;;;;;;5082670;28;20517;-69
2023/04/12 09:38:13;;;;;;;6.50;6.30;;;11.20;99.90;;;;;;5085447;28;20457;-70
2023/04/12 09:40:40;;;;;;;5.70;5.50;;;11.40;99.90;;;;;;5075597;28;20516;-70
2023/04/12 09:43:08;;;;;;;9.30;6.23;;;11.50;99.90;;;;;;5083715;28;20462;-70
2023/04/12 09:45:37;;;;;;;5.93;5.73;;;11.50;99.90;;;;;;5085967;28;20457;-69
2023/04/12 09:48:06;;;;;;;6.53;6.10;;;11.30;99.90;;;;;;5076636;28;20473;-70
2023/04/12 09:50:34;;;;;;;5.30;5.10;;;11.50;99.90;;;;;;5082893;28;20908;-69
2023/04/12 09:53:03;;;;;;;25.13;6.93;;;11.70;99.90;;;;;;5082262;28;20454;-68
2023/04/12 09:55:31;;;;;;;7.00;6.70;;;11.50;99.90;;;;;;5103680;28;21062;-69
2023/04/12 09:58:02;;;;;;;7.23;6.93;;;11.40;99.90;;;;;;5104309;28;20452;-69
2023/04/12 10:00:33;;;;;;;6.47;6.27;;;11.80;99.90;;;;;;5095226;28;20902;-69
2023/04/12 10:03:00;;;;;;;7.93;7.43;;;12.40;99.90;;;;;;5093982;28;20824;-68
2023/04/12 10:05:26;;;;;;;8.00;7.67;;;12.50;99.90;;;;;;5098180;28;20457;-70
2023/04/12 10:07:53;;;;;;;9.87;9.47;;;12.80;99.90;;;;;;5099483;28;20542;-68
2023/04/12 10:10:21;;;;;;;9.70;9.30;;;12.50;99.90;;;;;;5102461;28;20547;-69
2023/04/12 10:12:50;;;;;;;9.77;9.37;;;12.20;99.90;;;;;;5094546;28;20457;-68
2023/04/12 10:15:19;;;;;;;10.63;10.13;;;12.00;99.90;;;;;;5099852;28;20473;-69
2023/04/12 10:17:49;;;;;;;10.60;10.10;;;12.00;99.90;;;;;;5091369;28;20551;-70
2023/04/12 10:20:17;;;;;;;10.30;9.80;;;12.10;99.90;;;;;;5099247;28;20485;-69
2023/04/12 10:22:47;;;;;;;11.47;10.97;;;12.00;99.90;;;;;;5095335;28;20941;-68
2023/04/12 10:25:16;;;;;;;12.90;12.03;;;11.80;99.90;;;;;;5096368;28;20460;-69
2023/04/12 10:27:44;;;;;;;11.83;11.03;;;11.50;99.90;;;;;;5101959;28;20462;-68
2023/04/12 10:30:22;;;;;;;11.87;11.17;;;11.30;99.90;;;;;;5092755;28;20454;-68
2023/04/12 10:33:12;;;;;;;11.53;11.03;;;11.20;99.90;;;;;;5097534;28;20947;-69
2023/04/12 10:36:09;;;;;;;11.50;11.00;;;11.20;99.90;;;;;;5093268;28;20460;-69
2023/04/12 10:38:45;;;;;;;11.90;11.40;;;11.20;99.90;;;;;;5066569;28;20469;-68
2023/04/12 10:41:15;;;;;;;12.40;11.80;;;11.50;99.90;;;;;;5100444;28;20492;-68
2023/04/12 10:43:43;;;;;;;14.10;13.30;;;11.80;99.90;;;;;;5095447;28;20462;-69
2023/04/12 10:46:43;;;;;;;13.43;12.83;;;12.00;99.90;;;;;;5093262;28;20466;-69
2023/04/12 10:49:12;;;;;;;12.90;12.30;;;12.10;99.90;;;;;;5094519;28;20473;-68
2023/04/12 10:51:40;;;;;;;14.23;13.17;;;12.20;99.90;;;;;;5091787;28;20456;-68
2023/04/12 10:54:31;;;;;;;14.50;13.90;;;12.30;99.90;;;;;;5098863;28;20533;-68
2023/04/12 10:56:57;;;;;;;14.60;13.90;;;12.70;99.90;;;;;;5095180;28;20468;-69
2023/04/12 10:59:24;;;;;;;14.70;14.00;;;13.00;99.90;;;;;;5094601;28;20865;-69
2023/04/12 11:02:09;;;;;;;15.40;14.70;;;13.30;99.90;;;;;;5108626;28;20549;-69
2023/04/12 11:04:38;;;;;;;14.97;14.27;;;13.80;99.90;;;;;;5091581;28;20457;-68
2023/04/12 11:07:09;;;;;;;16.13;15.37;;;13.90;99.90;;;;;;5093578;28;20461;-68
2023/04/12 11:09:42;;;;;;;16.70;15.80;;;14.20;99.90;;;;;;5107463;28;20465;-69
2023/04/12 11:12:14;;;;;;;16.40;15.60;;;14.40;99.90;;;;;;5097814;28;20456;-69
2023/04/12 11:14:45;;;;;;;16.60;15.80;;;14.50;99.90;;;;;;5102486;28;20824;-69
2023/04/12 11:17:23;;;;;;;16.17;15.37;;;14.50;99.90;;;;;;5106766;28;20446;-69
2023/04/12 11:20:03;;;;;;;17.57;16.23;;;14.50;99.90;;;;;;5092323;28;20467;-69
2023/04/12 11:22:32;;;;;;;17.53;16.57;;;14.40;99.90;;;;;;5111424;28;20489;-69
2023/04/12 11:25:01;;;;;;;17.13;16.03;;;14.60;99.90;;;;;;5109188;27;20647;-69
2023/04/12 11:27:30;;;;;;;18.03;16.53;;;15.10;99.90;;;;;;5102098;28;20456;-70
2023/04/12 11:29:58;;;;;;;16.23;15.43;;;15.70;99.90;;;;;;5097352;28;20955;-70
2023/04/12 11:32:26;;;;;;;16.83;16.03;;;16.00;99.90;;;;;;5100708;28;21013;-69
2023/04/12 11:34:55;;;;;;;17.00;16.13;;;16.20;99.90;;;;;;5110400;28;20455;-69
2023/04/12 11:37:25;;;;;;;17.93;16.63;;;16.00;99.90;;;;;;5112104;28;20449;-69
2023/04/12 11:39:55;;;;;;;17.53;16.10;;;16.20;99.90;;;;;;5095684;28;20458;-69
2023/04/12 11:42:24;;;;;;;17.93;16.70;;;15.90;99.90;;;;;;5091679;28;20919;-68
2023/04/12 11:44:51;;;;;;;16.80;15.90;;;15.70;99.90;;;;;;5098709;28;20469;-68
2023/04/12 11:47:19;;;;;;;16.87;15.97;;;15.30;99.90;;;;;;5097796;28;20820;-69
2023/04/12 11:49:48;;;;;;;17.63;16.23;;;15.40;99.90;;;;;;5098551;28;20460;-69
2023/04/12 11:52:16;;;;;;;16.20;15.43;;;15.40;99.90;;;;;;5097694;28;20469;-72
2023/04/12 11:54:46;;;;;;;16.20;15.40;;;15.40;99.90;;;;;;5102420;27;20480;-68
2023/04/12 11:57:15;;;;;;;16.30;15.50;;;15.60;99.90;;;;;;5104174;28;20460;-69
2023/04/12 11:59:44;;;;;;;17.97;16.47;;;15.90;99.90;;;;;;5100081;28;20453;-70
2023/04/12 12:02:12;;;;;;;16.00;15.20;;;16.40;99.90;;;;;;5094699;28;20583;-70
2023/04/12 12:04:41;;;;;;;15.70;15.00;;;16.20;99.90;;;;;;5101812;28;20480;-68
2023/04/12 12:07:08;;;;;;;17.30;16.10;;;16.10;99.90;;;;;;5105379;28;20905;-68
2023/04/12 12:09:36;;;;;;;15.60;14.90;;;15.80;99.90;;;;;;5092478;28;20528;-69
2023/04/12 12:12:05;;;;;;;17.13;16.13;;;15.80;99.90;;;;;;5104304;28;20465;-72
2023/04/12 12:14:35;;;;;;;16.10;15.30;;;15.50;99.90;;;;;;5102981;28;20862;-69
2023/04/12 12:17:04;;;;;;;18.00;16.90;;;15.30;99.90;;;;;;5102590;28;20900;-69
2023/04/12 12:19:33;;;;;;;17.83;16.70;;;15.90;99.90;;;;;;5093530;28;20486;-69
2023/04/12 12:22:17;;;;;;;17.47;16.37;;;16.20;99.90;;;;;;5103593;28;20525;-70
2023/04/12 12:24:50;;;;;;;16.67;15.87;;;16.10;99.90;;;;;;5104073;28;21005;-69
2023/04/12 12:27:23;;;;;;;17.27;16.27;;;16.20;99.90;;;;;;5100807;28;20548;-69
2023/04/12 12:29:52;;;;;;;18.13;16.87;;;15.40;99.90;;;;;;5094416;28;20485;-70
2023/04/12 12:32:21;;;;;;;17.27;16.30;;;15.70;99.90;;;;;;5099460;28;20529;-71
2023/04/12 12:34:54;;;;;;;17.73;16.43;;;15.60;99.90;;;;;;5103703;28;20457;-70
2023/04/12 12:37:24;;;;;;;15.87;15.17;;;15.90;99.90;;;;;;5103623;28;20514;-70
2023/04/12 12:40:12;;;;;;;16.50;15.70;;;15.70;99.90;;;;;;5089702;28;20951;-70
2023/04/12 12:42:47;;;;;;;16.13;15.43;;;15.90;99.90;;;;;;5107130;28;20541;-69
2023/04/12 12:45:15;;;;;;;16.87;15.97;;;15.90;99.90;;;;;;5104818;28;20465;-71
2023/04/12 12:47:50;;;;;;;17.23;16.33;;;16.10;99.90;;;;;;5098162;28;20489;-70